sensor_id;sensor_type;location;lat;lon;timestamp;temperature;humidity
37998;DHT22;24079;51.824;4.682;2022-07-10T00:00:33;16.30;99.90
37998;DHT22;24079;51.824;4.682;2022-07-10T00:03:01;16.30;99.90
37998;DHT22;24079;51.824;4.682;2022-07-10T00:05:27;16.30;99.90
37998;DHT22;24079;51.824;4.682;2022-07-10T00:07:52;16.30;99.90
37998;DHT22;24079;51.824;4.682;2022-07-10T00:10:19;16.30;99.90
37998;DHT22;24079;51.824;4.682;2022-07-10T00:12:45;16.30;99.90
37998;DHT22;24079;51.824;4.682;2022-07-10T00:15:12;16.30;99.90
37998;DHT22;24079;51.824;4.682;2022-07-10T00:17:38;16.30;99.90
37998;DHT22;24079;51.824;4.682;2022-07-10T00:20:05;16.30;99.90
37998;DHT22;24079;51.824;4.682;2022-07-10T00:22:36;16.20;99.90
37998;DHT22;24079;51.824;4.682;2022-07-10T00:25:03;16.20;99.90
37998;DHT22;24079;51.824;4.682;2022-07-10T00:27:29;16.20;99.90
37998;DHT22;24079;51.824;4.682;2022-07-10T00:29:54;16.20;99.90
37998;DHT22;24079;51.824;4.682;2022-07-10T00:32:20;16.20;99.90
37998;DHT22;24079;51.824;4.682;2022-07-10T00:34:45;16.20;99.90
37998;DHT22;24079;51.824;4.682;2022-07-10T00:37:11;16.30;99.90
37998;DHT22;24079;51.824;4.682;2022-07-10T00:39:37;16.20;99.90
37998;DHT22;24079;51.824;4.682;2022-07-10T00:42:10;16.20;99.90
37998;DHT22;24079;51.824;4.682;2022-07-10T00:44:37;16.30;99.90
37998;DHT22;24079;51.824;4.682;2022-07-10T00:47:04;16.30;99.90
37998;DHT22;24079;51.824;4.682;2022-07-10T00:49:31;16.20;99.90
37998;DHT22;24079;51.824;4.682;2022-07-10T00:51:59;16.20;99.90
37998;DHT22;24079;51.824;4.682;2022-07-10T00:54:25;16.20;99.90
37998;DHT22;24079;51.824;4.682;2022-07-10T00:56:51;16.20;99.90
37998;DHT22;24079;51.824;4.682;2022-07-10T00:59:18;16.20;99.90
37998;DHT22;24079;51.824;4.682;2022-07-10T01:01:44;16.20;99.90
37998;DHT22;24079;51.824;4.682;2022-07-10T01:04:10;16.20;99.90
37998;DHT22;24079;51.824;4.682;2022-07-10T01:06:36;16.20;99.90
37998;DHT22;24079;51.824;4.682;2022-07-10T01:09:02;16.10;99.90
37998;DHT22;24079;51.824;4.682;2022-07-10T01:11:28;16.10;99.90
37998;DHT22;24079;51.824;4.682;2022-07-10T01:13:54;16.10;99.90
37998;DHT22;24079;51.824;4.682;2022-07-10T01:16:20;16.20;99.90
37998;DHT22;24079;51.824;4.682;2022-07-10T01:18:47;16.10;99.90
37998;DHT22;24079;51.824;4.682;2022-07-10T01:21:38;16.10;99.90
37998;DHT22;24079;51.824;4.682;2022-07-10T01:24:07;16.00;99.90
37998;DHT22;24079;51.824;4.682;2022-07-10T01:26:34;16.00;99.90
37998;DHT22;24079;51.824;4.682;2022-07-10T01:29:04;16.00;99.90
37998;DHT22;24079;51.824;4.682;2022-07-10T01:31:30;16.00;99.90
37998;DHT22;24079;51.824;4.682;2022-07-10T01:33:56;16.00;99.90
37998;DHT22;24079;51.824;4.682;2022-07-10T01:36:22;16.00;99.90
37998;DHT22;24079;51.824;4.682;2022-07-10T01:38:51;15.90;99.90
37998;DHT22;24079;51.824;4.682;2022-07-10T01:41:17;16.00;99.90
37998;DHT22;24079;51.824;4.682;2022-07-10T01:43:42;15.90;99.90
37998;DHT22;24079;51.824;4.682;2022-07-10T01:46:11;15.90;99.90
37998;DHT22;24079;51.824;4.682;2022-07-10T01:48:38;15.90;99.90
37998;DHT22;24079;51.824;4.682;2022-07-10T01:51:07;15.90;99.90
37998;DHT22;24079;51.824;4.682;2022-07-10T01:53:33;15.80;99.90
37998;DHT22;24079;51.824;4.682;2022-07-10T01:56:01;15.80;99.90
37998;DHT22;24079;51.824;4.682;2022-07-10T01:58:28;15.80;99.90
37998;DHT22;24079;51.824;4.682;2022-07-10T02:00:54;15.80;99.90
37998;DHT22;24079;51.824;4.682;2022-07-10T02:03:19;15.90;99.90
37998;DHT22;24079;51.824;4.682;2022-07-10T02:06:03;15.80;99.90
37998;DHT22;24079;51.824;4.682;2022-07-10T02:08:29;15.80;99.90
37998;DHT22;24079;51.824;4.682;2022-07-10T02:10:55;15.80;99.90
37998;DHT22;24079;51.824;4.682;2022-07-10T02:13:20;15.80;99.90
37998;DHT22;24079;51.824;4.682;2022-07-10T02:15:50;15.80;99.90
37998;DHT22;24079;51.824;4.682;2022-07-10T02:18:15;15.80;99.90
37998;DHT22;24079;51.824;4.682;2022-07-10T02:20:41;15.80;99.90
37998;DHT22;24079;51.824;4.682;2022-07-10T02:23:07;15.80;99.90
37998;DHT22;24079;51.824;4.682;2022-07-10T02:25:33;15.80;99.90
37998;DHT22;24079;51.824;4.682;2022-07-10T02:27:59;15.80;99.90
37998;DHT22;24079;51.824;4.682;2022-07-10T02:30:25;15.80;99.90
37998;DHT22;24079;51.824;4.682;2022-07-10T02:32:51;15.70;99.90
37998;DHT22;24079;51.824;4.682;2022-07-10T02:35:17;15.70;99.90
37998;DHT22;24079;51.824;4.682;2022-07-10T02:37:43;15.70;99.90
37998;DHT22;24079;51.824;4.682;2022-07-10T02:40:09;15.80;99.90
37998;DHT22;24079;51.824;4.682;2022-07-10T02:42:34;15.70;99.90
37998;DHT22;24079;51.824;4.682;2022-07-10T02:45:00;15.70;99.90
37998;DHT22;24079;51.824;4.682;2022-07-10T02:47:26;15.70;99.90
37998;DHT22;24079;51.824;4.682;2022-07-10T02:49:51;15.70;99.90
37998;DHT22;24079;51.824;4.682;2022-07-10T02:52:17;15.80;99.90
37998;DHT22;24079;51.824;4.682;2022-07-10T02:54:42;15.80;99.90
37998;DHT22;24079;51.824;4.682;2022-07-10T02:57:08;15.90;99.90
37998;DHT22;24079;51.824;4.682;2022-07-10T02:59:33;15.90;99.90
37998;DHT22;24079;51.824;4.682;2022-07-10T03:01:59;15.90;99.90
37998;DHT22;24079;51.824;4.682;2022-07-10T03:04:26;15.80;99.90
37998;DHT22;24079;51.824;4.682;2022-07-10T03:06:52;15.80;99.90
37998;DHT22;24079;51.824;4.682;2022-07-10T03:09:18;15.80;99.90
37998;DHT22;24079;51.824;4.682;2022-07-10T03:11:43;15.80;99.90
37998;DHT22;24079;51.824;4.682;2022-07-10T03:14:09;15.70;99.90
37998;DHT22;24079;51.824;4.682;2022-07-10T03:16:34;15.80;99.90
37998;DHT22;24079;51.824;4.682;2022-07-10T03:19:00;15.80;99.90
37998;DHT22;24079;51.824;4.682;2022-07-10T03:21:25;15.80;99.90
37998;DHT22;24079;51.824;4.682;2022-07-10T03:23:51;15.90;99.90
37998;DHT22;24079;51.824;4.682;2022-07-10T03:26:17;15.80;99.90
37998;DHT22;24079;51.824;4.682;2022-07-10T03:28:42;15.90;99.90
37998;DHT22;24079;51.824;4.682;2022-07-10T03:31:08;15.90;99.90
37998;DHT22;24079;51.824;4.682;2022-07-10T03:33:34;15.90;99.90
37998;DHT22;24079;51.824;4.682;2022-07-10T03:35:59;15.90;99.90
37998;DHT22;24079;51.824;4.682;2022-07-10T03:38:28;16.00;99.90
37998;DHT22;24079;51.824;4.682;2022-07-10T03:40:54;16.00;99.90
37998;DHT22;24079;51.824;4.682;2022-07-10T03:43:19;16.00;99.90
37998;DHT22;24079;51.824;4.682;2022-07-10T03:45:45;16.10;99.90
37998;DHT22;24079;51.824;4.682;2022-07-10T03:48:11;16.10;99.90
37998;DHT22;24079;51.824;4.682;2022-07-10T03:50:37;16.10;99.90
37998;DHT22;24079;51.824;4.682;2022-07-10T03:53:02;16.10;99.90
37998;DHT22;24079;51.824;4.682;2022-07-10T03:55:28;16.10;99.90
37998;DHT22;24079;51.824;4.682;2022-07-10T03:57:53;16.20;99.90
37998;DHT22;24079;51.824;4.682;2022-07-10T04:00:25;16.20;99.90
37998;DHT22;24079;51.824;4.682;2022-07-10T04:03:02;16.20;99.90
37998;DHT22;24079;51.824;4.682;2022-07-10T04:05:28;16.20;99.90
37998;DHT22;24079;51.824;4.682;2022-07-10T04:07:55;16.20;99.90
37998;DHT22;24079;51.824;4.682;2022-07-10T04:10:25;16.20;99.90
37998;DHT22;24079;51.824;4.682;2022-07-10T04:12:51;16.20;99.90
37998;DHT22;24079;51.824;4.682;2022-07-10T04:15:17;16.30;99.90
37998;DHT22;24079;51.824;4.682;2022-07-10T04:17:43;16.20;99.90
37998;DHT22;24079;51.824;4.682;2022-07-10T04:20:09;16.30;99.90
37998;DHT22;24079;51.824;4.682;2022-07-10T04:22:35;16.30;99.90
37998;DHT22;24079;51.824;4.682;2022-07-10T04:25:01;16.40;99.90
37998;DHT22;24079;51.824;4.682;2022-07-10T04:27:26;16.30;99.90
37998;DHT22;24079;51.824;4.682;2022-07-10T04:29:52;16.40;99.90
37998;DHT22;24079;51.824;4.682;2022-07-10T04:32:18;16.40;99.90
37998;DHT22;24079;51.824;4.682;2022-07-10T04:34:44;16.40;99.90
37998;DHT22;24079;51.824;4.682;2022-07-10T04:37:09;16.40;99.90
37998;DHT22;24079;51.824;4.682;2022-07-10T04:39:36;16.30;99.90
37998;DHT22;24079;51.824;4.682;2022-07-10T04:42:04;16.30;99.90
37998;DHT22;24079;51.824;4.682;2022-07-10T04:44:29;16.40;99.90
37998;DHT22;24079;51.824;4.682;2022-07-10T04:46:55;16.40;99.90
37998;DHT22;24079;51.824;4.682;2022-07-10T04:49:21;16.40;99.90
37998;DHT22;24079;51.824;4.682;2022-07-10T04:51:47;16.50;99.90
37998;DHT22;24079;51.824;4.682;2022-07-10T04:54:12;16.50;99.90
37998;DHT22;24079;51.824;4.682;2022-07-10T04:56:38;16.50;99.90
37998;DHT22;24079;51.824;4.682;2022-07-10T04:59:03;16.50;99.90
37998;DHT22;24079;51.824;4.682;2022-07-10T05:01:29;16.60;99.90
37998;DHT22;24079;51.824;4.682;2022-07-10T05:03:55;16.60;99.90
37998;DHT22;24079;51.824;4.682;2022-07-10T05:06:20;16.60;99.90
37998;DHT22;24079;51.824;4.682;2022-07-10T05:08:46;16.60;99.90
37998;DHT22;24079;51.824;4.682;2022-07-10T05:11:12;16.60;99.90
37998;DHT22;24079;51.824;4.682;2022-07-10T05:13:37;16.60;99.90
37998;DHT22;24079;51.824;4.682;2022-07-10T05:16:04;16.60;99.90
37998;DHT22;24079;51.824;4.682;2022-07-10T05:18:30;16.60;99.90
37998;DHT22;24079;51.824;4.682;2022-07-10T05:20:56;16.70;99.90
37998;DHT22;24079;51.824;4.682;2022-07-10T05:23:22;16.70;99.90
37998;DHT22;24079;51.824;4.682;2022-07-10T05:25:48;16.80;99.90
37998;DHT22;24079;51.824;4.682;2022-07-10T05:28:13;16.80;99.90
37998;DHT22;24079;51.824;4.682;2022-07-10T05:30:40;16.90;99.90
37998;DHT22;24079;51.824;4.682;2022-07-10T05:33:06;16.90;99.90
37998;DHT22;24079;51.824;4.682;2022-07-10T05:35:31;17.10;99.90
37998;DHT22;24079;51.824;4.682;2022-07-10T05:37:57;17.00;99.90
37998;DHT22;24079;51.824;4.682;2022-07-10T05:40:23;17.00;99.90
37998;DHT22;24079;51.824;4.682;2022-07-10T05:42:48;17.10;99.90
37998;DHT22;24079;51.824;4.682;2022-07-10T05:45:14;17.20;99.90
37998;DHT22;24079;51.824;4.682;2022-07-10T05:47:40;17.20;99.90
37998;DHT22;24079;51.824;4.682;2022-07-10T05:50:05;17.20;99.90
37998;DHT22;24079;51.824;4.682;2022-07-10T05:52:31;17.30;99.90
37998;DHT22;24079;51.824;4.682;2022-07-10T05:54:57;17.40;99.90
37998;DHT22;24079;51.824;4.682;2022-07-10T05:57:23;17.40;99.90
37998;DHT22;24079;51.824;4.682;2022-07-10T05:59:49;17.50;99.90
37998;DHT22;24079;51.824;4.682;2022-07-10T06:02:14;17.50;99.90
37998;DHT22;24079;51.824;4.682;2022-07-10T06:04:41;17.60;99.90
37998;DHT22;24079;51.824;4.682;2022-07-10T06:07:07;17.70;99.90
37998;DHT22;24079;51.824;4.682;2022-07-10T06:09:34;17.70;99.90
37998;DHT22;24079;51.824;4.682;2022-07-10T06:12:00;17.80;99.90
37998;DHT22;24079;51.824;4.682;2022-07-10T06:14:25;17.90;99.90
37998;DHT22;24079;51.824;4.682;2022-07-10T06:16:51;18.00;99.90
37998;DHT22;24079;51.824;4.682;2022-07-10T06:19:17;18.10;99.90
37998;DHT22;24079;51.824;4.682;2022-07-10T06:21:44;18.20;99.90
37998;DHT22;24079;51.824;4.682;2022-07-10T06:24:10;18.30;99.90
37998;DHT22;24079;51.824;4.682;2022-07-10T06:26:35;18.30;99.90
37998;DHT22;24079;51.824;4.682;2022-07-10T06:29:01;18.30;99.90
37998;DHT22;24079;51.824;4.682;2022-07-10T06:31:27;18.30;99.90
37998;DHT22;24079;51.824;4.682;2022-07-10T06:33:52;18.30;99.90
37998;DHT22;24079;51.824;4.682;2022-07-10T06:36:18;18.40;99.90
37998;DHT22;24079;51.824;4.682;2022-07-10T06:38:43;18.40;99.90
37998;DHT22;24079;51.824;4.682;2022-07-10T06:41:09;18.30;99.90
37998;DHT22;24079;51.824;4.682;2022-07-10T06:43:35;18.30;99.90
37998;DHT22;24079;51.824;4.682;2022-07-10T06:46:00;18.40;99.90
37998;DHT22;24079;51.824;4.682;2022-07-10T06:48:27;18.60;99.90
37998;DHT22;24079;51.824;4.682;2022-07-10T06:50:53;18.50;99.90
37998;DHT22;24079;51.824;4.682;2022-07-10T06:53:18;18.60;99.90
37998;DHT22;24079;51.824;4.682;2022-07-10T06:55:50;18.70;99.90
37998;DHT22;24079;51.824;4.682;2022-07-10T06:58:15;18.90;99.90
37998;DHT22;24079;51.824;4.682;2022-07-10T07:00:41;19.00;99.90
37998;DHT22;24079;51.824;4.682;2022-07-10T07:03:07;19.30;99.90
37998;DHT22;24079;51.824;4.682;2022-07-10T07:05:32;19.40;99.90
37998;DHT22;24079;51.824;4.682;2022-07-10T07:07:58;19.40;99.90
37998;DHT22;24079;51.824;4.682;2022-07-10T07:10:24;19.40;99.90
37998;DHT22;24079;51.824;4.682;2022-07-10T07:12:50;19.50;99.90
37998;DHT22;24079;51.824;4.682;2022-07-10T07:15:15;19.50;99.90
37998;DHT22;24079;51.824;4.682;2022-07-10T07:17:42;19.50;99.90
37998;DHT22;24079;51.824;4.682;2022-07-10T07:20:33;19.40;99.90
37998;DHT22;24079;51.824;4.682;2022-07-10T07:23:19;19.60;99.90
37998;DHT22;24079;51.824;4.682;2022-07-10T07:25:44;19.40;99.90
37998;DHT22;24079;51.824;4.682;2022-07-10T07:28:15;19.60;99.90
37998;DHT22;24079;51.824;4.682;2022-07-10T07:30:44;19.70;99.90
37998;DHT22;24079;51.824;4.682;2022-07-10T07:33:10;19.80;99.90
37998;DHT22;24079;51.824;4.682;2022-07-10T07:35:35;19.70;99.90
37998;DHT22;24079;51.824;4.682;2022-07-10T07:38:02;19.70;99.90
37998;DHT22;24079;51.824;4.682;2022-07-10T07:40:27;19.60;99.90
37998;DHT22;24079;51.824;4.682;2022-07-10T07:42:54;19.50;99.90
37998;DHT22;24079;51.824;4.682;2022-07-10T07:45:20;19.60;99.90
37998;DHT22;24079;51.824;4.682;2022-07-10T07:47:57;19.60;99.90
37998;DHT22;24079;51.824;4.682;2022-07-10T07:50:26;19.80;99.90
37998;DHT22;24079;51.824;4.682;2022-07-10T07:52:54;19.90;99.90
37998;DHT22;24079;51.824;4.682;2022-07-10T07:55:21;19.90;99.90
37998;DHT22;24079;51.824;4.682;2022-07-10T07:57:47;20.10;99.90
37998;DHT22;24079;51.824;4.682;2022-07-10T08:00:14;20.20;99.90
37998;DHT22;24079;51.824;4.682;2022-07-10T08:02:43;20.30;99.90
37998;DHT22;24079;51.824;4.682;2022-07-10T08:05:09;20.60;99.90
37998;DHT22;24079;51.824;4.682;2022-07-10T08:07:41;20.90;99.90
37998;DHT22;24079;51.824;4.682;2022-07-10T08:10:10;20.90;99.90
37998;DHT22;24079;51.824;4.682;2022-07-10T08:12:36;21.10;99.90
37998;DHT22;24079;51.824;4.682;2022-07-10T08:15:02;21.00;99.90
37998;DHT22;24079;51.824;4.682;2022-07-10T08:17:28;21.30;99.90
37998;DHT22;24079;51.824;4.682;2022-07-10T08:19:55;21.40;99.90
37998;DHT22;24079;51.824;4.682;2022-07-10T08:22:20;21.60;99.90
37998;DHT22;24079;51.824;4.682;2022-07-10T08:24:46;21.40;99.90
37998;DHT22;24079;51.824;4.682;2022-07-10T08:27:12;21.10;99.90
37998;DHT22;24079;51.824;4.682;2022-07-10T08:29:38;20.90;99.90
37998;DHT22;24079;51.824;4.682;2022-07-10T08:32:04;20.70;99.90
37998;DHT22;24079;51.824;4.682;2022-07-10T08:34:30;20.50;99.90
37998;DHT22;24079;51.824;4.682;2022-07-10T08:36:57;20.50;99.90
37998;DHT22;24079;51.824;4.682;2022-07-10T08:39:22;20.70;99.90
37998;DHT22;24079;51.824;4.682;2022-07-10T08:41:48;20.90;99.90
37998;DHT22;24079;51.824;4.682;2022-07-10T08:44:17;21.10;99.90
37998;DHT22;24079;51.824;4.682;2022-07-10T08:46:44;21.10;99.90
37998;DHT22;24079;51.824;4.682;2022-07-10T08:49:10;21.50;99.90
37998;DHT22;24079;51.824;4.682;2022-07-10T08:54:32;22.80;99.90
37998;DHT22;24079;51.824;4.682;2022-07-10T08:57:02;22.80;99.90
37998;DHT22;24079;51.824;4.682;2022-07-10T08:59:29;22.60;99.90
37998;DHT22;24079;51.824;4.682;2022-07-10T09:01:55;22.50;99.90
37998;DHT22;24079;51.824;4.682;2022-07-10T09:04:22;22.40;99.90
37998;DHT22;24079;51.824;4.682;2022-07-10T09:06:49;22.50;99.90
37998;DHT22;24079;51.824;4.682;2022-07-10T09:09:14;22.60;99.90
37998;DHT22;24079;51.824;4.682;2022-07-10T09:11:40;22.10;99.90
37998;DHT22;24079;51.824;4.682;2022-07-10T09:14:09;22.40;99.90
37998;DHT22;24079;51.824;4.682;2022-07-10T09:16:38;22.50;99.90
37998;DHT22;24079;51.824;4.682;2022-07-10T09:21:43;23.30;99.90
37998;DHT22;24079;51.824;4.682;2022-07-10T09:24:09;23.60;99.90
37998;DHT22;24079;51.824;4.682;2022-07-10T09:26:39;23.90;99.90
37998;DHT22;24079;51.824;4.682;2022-07-10T09:29:10;23.60;99.90
37998;DHT22;24079;51.824;4.682;2022-07-10T09:34:40;23.20;99.90
37998;DHT22;24079;51.824;4.682;2022-07-10T09:39:59;23.10;99.90
37998;DHT22;24079;51.824;4.682;2022-07-10T09:44:52;23.00;99.90
37998;DHT22;24079;51.824;4.682;2022-07-10T09:47:24;23.20;99.90
37998;DHT22;24079;51.824;4.682;2022-07-10T09:49:49;23.30;99.90
37998;DHT22;24079;51.824;4.682;2022-07-10T09:52:17;23.40;99.90
37998;DHT22;24079;51.824;4.682;2022-07-10T09:54:44;23.00;99.90
37998;DHT22;24079;51.824;4.682;2022-07-10T09:57:12;23.00;99.90
37998;DHT22;24079;51.824;4.682;2022-07-10T09:59:39;22.90;99.90
37998;DHT22;24079;51.824;4.682;2022-07-10T10:02:05;22.70;99.90
37998;DHT22;24079;51.824;4.682;2022-07-10T10:04:33;22.70;99.90
37998;DHT22;24079;51.824;4.682;2022-07-10T10:07:01;22.70;99.90
37998;DHT22;24079;51.824;4.682;2022-07-10T10:09:47;22.40;99.90
37998;DHT22;24079;51.824;4.682;2022-07-10T10:12:31;22.40;99.90
37998;DHT22;24079;51.824;4.682;2022-07-10T10:15:00;22.90;99.90
37998;DHT22;24079;51.824;4.682;2022-07-10T10:17:27;23.60;99.90
37998;DHT22;24079;51.824;4.682;2022-07-10T10:19:54;24.00;99.90
37998;DHT22;24079;51.824;4.682;2022-07-10T10:22:43;24.10;99.90
37998;DHT22;24079;51.824;4.682;2022-07-10T10:25:09;24.10;99.90
37998;DHT22;24079;51.824;4.682;2022-07-10T10:27:36;24.30;99.90
37998;DHT22;24079;51.824;4.682;2022-07-10T10:30:02;24.20;99.90
37998;DHT22;24079;51.824;4.682;2022-07-10T10:32:28;24.00;99.90
37998;DHT22;24079;51.824;4.682;2022-07-10T10:34:54;24.20;99.90
37998;DHT22;24079;51.824;4.682;2022-07-10T10:37:37;24.10;99.90
37998;DHT22;24079;51.824;4.682;2022-07-10T10:40:07;23.70;99.90
37998;DHT22;24079;51.824;4.682;2022-07-10T10:42:39;23.80;99.90
37998;DHT22;24079;51.824;4.682;2022-07-10T10:48:08;24.00;99.90
37998;DHT22;24079;51.824;4.682;2022-07-10T10:50:51;23.60;99.90
37998;DHT22;24079;51.824;4.682;2022-07-10T10:53:21;23.60;99.90
37998;DHT22;24079;51.824;4.682;2022-07-10T10:58:27;23.90;99.90
37998;DHT22;24079;51.824;4.682;2022-07-10T11:01:05;24.10;99.90
37998;DHT22;24079;51.824;4.682;2022-07-10T11:03:31;24.20;99.90
37998;DHT22;24079;51.824;4.682;2022-07-10T11:05:57;24.30;99.90
37998;DHT22;24079;51.824;4.682;2022-07-10T11:08:40;24.00;99.90
37998;DHT22;24079;51.824;4.682;2022-07-10T11:13:59;23.50;99.90
37998;DHT22;24079;51.824;4.682;2022-07-10T11:16:25;23.70;99.90
37998;DHT22;24079;51.824;4.682;2022-07-10T11:18:54;23.80;99.90
37998;DHT22;24079;51.824;4.682;2022-07-10T11:21:24;23.80;99.90
37998;DHT22;24079;51.824;4.682;2022-07-10T11:27:09;24.00;99.90
37998;DHT22;24079;51.824;4.682;2022-07-10T11:29:40;24.30;99.90
37998;DHT22;24079;51.824;4.682;2022-07-10T11:32:06;24.60;99.90
37998;DHT22;24079;51.824;4.682;2022-07-10T11:34:36;24.60;99.90
37998;DHT22;24079;51.824;4.682;2022-07-10T11:37:03;24.20;99.90
37998;DHT22;24079;51.824;4.682;2022-07-10T11:39:38;24.20;99.90
37998;DHT22;24079;51.824;4.682;2022-07-10T11:42:04;24.00;99.90
37998;DHT22;24079;51.824;4.682;2022-07-10T11:44:30;24.30;99.90
37998;DHT22;24079;51.824;4.682;2022-07-10T11:46:56;24.40;99.90
37998;DHT22;24079;51.824;4.682;2022-07-10T11:49:23;24.20;99.90
37998;DHT22;24079;51.824;4.682;2022-07-10T11:51:49;24.60;99.90
37998;DHT22;24079;51.824;4.682;2022-07-10T11:54:16;25.00;99.90
37998;DHT22;24079;51.824;4.682;2022-07-10T11:56:48;25.40;99.90
37998;DHT22;24079;51.824;4.682;2022-07-10T11:59:15;25.30;99.90
37998;DHT22;24079;51.824;4.682;2022-07-10T12:01:43;25.30;99.90
37998;DHT22;24079;51.824;4.682;2022-07-10T12:04:10;25.50;99.90
37998;DHT22;24079;51.824;4.682;2022-07-10T12:06:38;25.40;99.90
37998;DHT22;24079;51.824;4.682;2022-07-10T12:09:14;25.40;99.90
37998;DHT22;24079;51.824;4.682;2022-07-10T12:11:41;25.20;99.90
37998;DHT22;24079;51.824;4.682;2022-07-10T12:14:18;25.20;99.90
37998;DHT22;24079;51.824;4.682;2022-07-10T12:16:46;25.00;99.90
37998;DHT22;24079;51.824;4.682;2022-07-10T12:19:14;24.60;99.90
37998;DHT22;24079;51.824;4.682;2022-07-10T12:21:42;24.60;99.90
37998;DHT22;24079;51.824;4.682;2022-07-10T12:24:07;24.80;99.90
37998;DHT22;24079;51.824;4.682;2022-07-10T12:26:43;24.80;99.90
37998;DHT22;24079;51.824;4.682;2022-07-10T12:29:28;24.70;99.90
37998;DHT22;24079;51.824;4.682;2022-07-10T12:31:56;24.60;99.90
37998;DHT22;24079;51.824;4.682;2022-07-10T12:34:41;24.80;99.90
37998;DHT22;24079;51.824;4.682;2022-07-10T12:37:13;25.20;99.90
37998;DHT22;24079;51.824;4.682;2022-07-10T12:39:48;25.70;99.90
37998;DHT22;24079;51.824;4.682;2022-07-10T12:42:28;25.90;99.90
37998;DHT22;24079;51.824;4.682;2022-07-10T12:44:54;25.60;99.90
37998;DHT22;24079;51.824;4.682;2022-07-10T12:47:48;25.40;99.90
37998;DHT22;24079;51.824;4.682;2022-07-10T12:50:16;25.30;99.90
37998;DHT22;24079;51.824;4.682;2022-07-10T12:52:43;25.20;99.90
37998;DHT22;24079;51.824;4.682;2022-07-10T12:55:13;25.30;99.90
37998;DHT22;24079;51.824;4.682;2022-07-10T12:58:06;25.30;99.90
37998;DHT22;24079;51.824;4.682;2022-07-10T13:00:35;25.60;99.90
37998;DHT22;24079;51.824;4.682;2022-07-10T13:03:04;25.90;99.90
37998;DHT22;24079;51.824;4.682;2022-07-10T13:05:34;25.70;99.90
37998;DHT22;24079;51.824;4.682;2022-07-10T13:10:49;25.40;99.90
37998;DHT22;24079;51.824;4.682;2022-07-10T13:13:15;25.40;99.90
37998;DHT22;24079;51.824;4.682;2022-07-10T13:15:42;25.70;99.90
37998;DHT22;24079;51.824;4.682;2022-07-10T13:18:26;25.80;99.90
37998;DHT22;24079;51.824;4.682;2022-07-10T13:20:54;25.60;99.90
37998;DHT22;24079;51.824;4.682;2022-07-10T13:23:20;25.40;99.90
37998;DHT22;24079;51.824;4.682;2022-07-10T13:25:52;25.50;99.90
37998;DHT22;24079;51.824;4.682;2022-07-10T13:28:18;25.70;99.90
37998;DHT22;24079;51.824;4.682;2022-07-10T13:30:44;25.70;99.90
37998;DHT22;24079;51.824;4.682;2022-07-10T13:33:10;25.60;99.90
37998;DHT22;24079;51.824;4.682;2022-07-10T13:35:36;25.20;99.90
37998;DHT22;24079;51.824;4.682;2022-07-10T13:38:03;25.40;99.90
37998;DHT22;24079;51.824;4.682;2022-07-10T13:40:29;25.50;99.90
37998;DHT22;24079;51.824;4.682;2022-07-10T13:42:56;25.40;99.90
37998;DHT22;24079;51.824;4.682;2022-07-10T13:45:23;25.30;99.90
37998;DHT22;24079;51.824;4.682;2022-07-10T13:47:50;25.30;99.90
37998;DHT22;24079;51.824;4.682;2022-07-10T13:50:15;25.20;99.90
37998;DHT22;24079;51.824;4.682;2022-07-10T13:52:41;25.20;99.90
37998;DHT22;24079;51.824;4.682;2022-07-10T13:55:07;25.40;99.90
37998;DHT22;24079;51.824;4.682;2022-07-10T13:57:33;25.50;99.90
37998;DHT22;24079;51.824;4.682;2022-07-10T13:59:59;25.50;99.90
37998;DHT22;24079;51.824;4.682;2022-07-10T14:02:25;25.20;99.90
37998;DHT22;24079;51.824;4.682;2022-07-10T14:04:51;25.20;99.90
37998;DHT22;24079;51.824;4.682;2022-07-10T14:07:17;25.40;99.90
37998;DHT22;24079;51.824;4.682;2022-07-10T14:09:42;25.10;99.90
37998;DHT22;24079;51.824;4.682;2022-07-10T14:12:08;25.00;99.90
37998;DHT22;24079;51.824;4.682;2022-07-10T14:14:34;24.90;99.90
37998;DHT22;24079;51.824;4.682;2022-07-10T14:16:59;24.80;99.90
37998;DHT22;24079;51.824;4.682;2022-07-10T14:19:25;24.90;99.90
37998;DHT22;24079;51.824;4.682;2022-07-10T14:21:50;24.80;99.90
37998;DHT22;24079;51.824;4.682;2022-07-10T14:24:16;24.60;99.90
37998;DHT22;24079;51.824;4.682;2022-07-10T14:26:42;24.40;99.90
37998;DHT22;24079;51.824;4.682;2022-07-10T14:29:07;24.50;99.90
37998;DHT22;24079;51.824;4.682;2022-07-10T14:31:33;24.90;99.90
37998;DHT22;24079;51.824;4.682;2022-07-10T14:33:59;25.00;99.90
37998;DHT22;24079;51.824;4.682;2022-07-10T14:36:25;24.90;99.90
37998;DHT22;24079;51.824;4.682;2022-07-10T14:38:54;24.60;99.90
37998;DHT22;24079;51.824;4.682;2022-07-10T14:41:22;24.50;99.90
37998;DHT22;24079;51.824;4.682;2022-07-10T14:43:48;24.30;99.90
37998;DHT22;24079;51.824;4.682;2022-07-10T14:46:13;24.50;99.90
37998;DHT22;24079;51.824;4.682;2022-07-10T14:48:39;24.60;99.90
37998;DHT22;24079;51.824;4.682;2022-07-10T14:51:05;24.60;99.90
37998;DHT22;24079;51.824;4.682;2022-07-10T14:53:30;24.50;99.90
37998;DHT22;24079;51.824;4.682;2022-07-10T14:56:04;24.70;99.90
37998;DHT22;24079;51.824;4.682;2022-07-10T14:58:33;24.80;99.90
37998;DHT22;24079;51.824;4.682;2022-07-10T15:00:59;24.80;99.90
37998;DHT22;24079;51.824;4.682;2022-07-10T15:03:26;25.00;99.90
37998;DHT22;24079;51.824;4.682;2022-07-10T15:05:51;25.10;99.90
37998;DHT22;24079;51.824;4.682;2022-07-10T15:08:19;25.10;99.90
37998;DHT22;24079;51.824;4.682;2022-07-10T15:10:46;25.10;99.90
37998;DHT22;24079;51.824;4.682;2022-07-10T15:13:12;24.90;99.90
37998;DHT22;24079;51.824;4.682;2022-07-10T15:15:38;24.80;99.90
37998;DHT22;24079;51.824;4.682;2022-07-10T15:18:03;24.80;99.90
37998;DHT22;24079;51.824;4.682;2022-07-10T15:20:29;24.60;99.90
37998;DHT22;24079;51.824;4.682;2022-07-10T15:22:55;24.60;99.90
37998;DHT22;24079;51.824;4.682;2022-07-10T15:25:21;24.50;99.90
37998;DHT22;24079;51.824;4.682;2022-07-10T15:27:46;24.30;99.90
37998;DHT22;24079;51.824;4.682;2022-07-10T15:30:12;24.10;99.90
37998;DHT22;24079;51.824;4.682;2022-07-10T15:32:38;24.10;99.90
37998;DHT22;24079;51.824;4.682;2022-07-10T15:35:04;24.20;99.90
37998;DHT22;24079;51.824;4.682;2022-07-10T15:37:31;24.30;99.90
37998;DHT22;24079;51.824;4.682;2022-07-10T15:39:56;24.40;99.90
37998;DHT22;24079;51.824;4.682;2022-07-10T15:42:22;24.20;99.90
37998;DHT22;24079;51.824;4.682;2022-07-10T15:44:47;24.30;99.90
37998;DHT22;24079;51.824;4.682;2022-07-10T15:47:13;24.30;99.90
37998;DHT22;24079;51.824;4.682;2022-07-10T15:49:39;24.20;99.90
37998;DHT22;24079;51.824;4.682;2022-07-10T15:52:05;24.20;99.90
37998;DHT22;24079;51.824;4.682;2022-07-10T15:54:31;24.10;99.90
37998;DHT22;24079;51.824;4.682;2022-07-10T15:56:57;24.00;99.90
37998;DHT22;24079;51.824;4.682;2022-07-10T15:59:22;24.10;99.90